createdAt,value
2022-10-03T00:01:16.597Z,7.90
2022-10-03T00:03:33.922Z,7.90
2022-10-03T00:05:35.195Z,7.90
2022-10-03T00:07:31.495Z,7.90
2022-10-03T00:09:36.720Z,7.80
2022-10-03T00:11:29.049Z,7.80
2022-10-03T00:13:21.491Z,7.80
2022-10-03T00:15:09.033Z,7.80
2022-10-03T00:16:58.108Z,7.70
2022-10-03T00:18:46.583Z,7.70
2022-10-03T00:20:47.939Z,7.70
2022-10-03T00:22:40.668Z,7.70
2022-10-03T00:24:33.104Z,7.70
2022-10-03T00:26:31.342Z,7.70
2022-10-03T00:28:22.997Z,7.70
2022-10-03T00:30:18.306Z,7.60
2022-10-03T00:32:05.723Z,7.60
2022-10-03T00:33:59.036Z,7.60
2022-10-03T00:35:56.232Z,7.60
2022-10-03T00:37:38.038Z,7.60
2022-10-03T00:39:38.509Z,7.50
2022-10-03T00:41:39.527Z,7.50
2022-10-03T00:44:04.730Z,7.50
2022-10-03T00:46:36.824Z,7.50
2022-10-03T00:48:50.982Z,7.50
2022-10-03T00:50:56.702Z,7.40
2022-10-03T00:53:05.032Z,7.40
2022-10-03T00:54:59.815Z,7.40
2022-10-03T00:57:14.455Z,7.30
2022-10-03T00:59:10.558Z,7.30
2022-10-03T01:01:00.993Z,7.30
2022-10-03T01:02:59.927Z,7.20
2022-10-03T01:04:56.255Z,7.20
2022-10-03T01:06:48.963Z,7.20
2022-10-03T01:09:15.338Z,7.20
2022-10-03T01:11:06.465Z,7.20
2022-10-03T01:13:08.550Z,7.20
2022-10-03T01:15:11.435Z,7.20
2022-10-03T01:17:07.327Z,7.20
2022-10-03T01:19:02.294Z,7.10
2022-10-03T01:20:50.958Z,7.10
2022-10-03T01:23:03.780Z,7.10
2022-10-03T01:25:05.318Z,7.10
2022-10-03T01:26:57.876Z,7.00
2022-10-03T01:29:10.569Z,7.10
2022-10-03T01:30:49.928Z,7.00
2022-10-03T01:32:35.276Z,7.00
2022-10-03T01:34:18.819Z,7.00
2022-10-03T01:36:03.453Z,7.10
2022-10-03T01:37:56.550Z,7.00
2022-10-03T01:39:42.328Z,7.00
2022-10-03T01:41:29.412Z,7.00
2022-10-03T01:43:17.147Z,7.00
2022-10-03T01:45:13.477Z,7.00
2022-10-03T01:46:55.781Z,7.00
2022-10-03T01:48:51.949Z,7.00
2022-10-03T01:50:40.246Z,7.00
2022-10-03T01:52:26.079Z,7.00
2022-10-03T01:54:14.953Z,7.00
2022-10-03T01:56:04.405Z,7.00
2022-10-03T01:57:53.708Z,6.90
2022-10-03T01:59:45.483Z,6.90
2022-10-03T02:01:37.959Z,7.00
2022-10-03T02:03:22.960Z,6.90
2022-10-03T02:05:10.867Z,6.90
2022-10-03T02:07:02.565Z,6.90
2022-10-03T02:08:54.023Z,6.90
2022-10-03T02:10:42.332Z,6.90
2022-10-03T02:12:30.756Z,6.90
2022-10-03T02:14:23.251Z,6.90
2022-10-03T02:16:05.961Z,6.90
2022-10-03T02:17:58.898Z,6.90
2022-10-03T02:19:48.318Z,6.90
2022-10-03T02:21:24.921Z,6.90
2022-10-03T02:23:00.761Z,6.80
2022-10-03T02:24:51.527Z,6.80
2022-10-03T02:27:40.183Z,6.80
2022-10-03T02:29:58.284Z,6.80
2022-10-03T02:32:22.746Z,6.70
2022-10-03T02:34:36.739Z,6.70
2022-10-03T02:37:08.823Z,6.70
2022-10-03T02:39:29.276Z,6.70
2022-10-03T02:41:28.587Z,6.60
2022-10-03T02:44:00.116Z,6.60
2022-10-03T02:46:25.123Z,6.60
2022-10-03T02:48:55.962Z,6.60
2022-10-03T02:51:23.904Z,6.50
2022-10-03T02:54:14.805Z,6.50
2022-10-03T02:56:42.219Z,6.50
2022-10-03T02:59:04.603Z,6.50
2022-10-03T03:01:16.420Z,6.50
2022-10-03T03:03:35.343Z,6.40
2022-10-03T03:05:30.130Z,6.40
2022-10-03T03:07:38.776Z,6.40
2022-10-03T03:10:10.613Z,6.40
2022-10-03T03:12:30.225Z,6.40
2022-10-03T03:15:02.855Z,6.40
2022-10-03T03:17:12.807Z,6.40
2022-10-03T03:19:05.900Z,6.40
2022-10-03T03:21:14.490Z,6.40
2022-10-03T03:23:12.664Z,6.40
2022-10-03T03:25:16.336Z,6.40
2022-10-03T03:27:18.471Z,6.40
2022-10-03T03:29:12.124Z,6.40
2022-10-03T03:30:57.672Z,6.30
2022-10-03T03:32:51.525Z,6.40
2022-10-03T03:34:40.158Z,6.40
2022-10-03T03:36:28.087Z,6.40
2022-10-03T03:38:24.666Z,6.40
2022-10-03T03:40:32.299Z,6.40
2022-10-03T03:42:36.373Z,6.40
2022-10-03T03:44:38.412Z,6.40
2022-10-03T03:46:30.795Z,6.40
2022-10-03T03:48:38.319Z,6.40
2022-10-03T03:50:36.716Z,6.50
2022-10-03T03:52:41.790Z,6.50
2022-10-03T03:54:57.118Z,6.50
2022-10-03T03:56:53.650Z,6.50
2022-10-03T03:58:39.811Z,6.50
2022-10-03T04:00:21.474Z,6.50
2022-10-03T04:02:13.601Z,6.50
2022-10-03T04:04:04.984Z,6.50
2022-10-03T04:06:29.502Z,6.50
2022-10-03T04:08:28.771Z,6.50
2022-10-03T04:10:26.595Z,6.50
2022-10-03T04:12:15.535Z,6.50
2022-10-03T04:14:46.849Z,6.50
2022-10-03T04:17:04.705Z,6.50
2022-10-03T04:19:00.265Z,6.50
2022-10-03T04:21:05.642Z,6.50
2022-10-03T04:23:04.762Z,6.50
2022-10-03T04:25:20.397Z,6.50
2022-10-03T04:27:22.155Z,6.50
2022-10-03T04:29:37.335Z,6.50
2022-10-03T04:31:42.671Z,6.50
2022-10-03T04:33:37.868Z,6.50
2022-10-03T04:35:44.135Z,6.50
2022-10-03T04:37:40.505Z,6.50
2022-10-03T04:39:31.061Z,6.50
2022-10-03T04:41:17.015Z,6.50
2022-10-03T04:43:10.061Z,6.40
2022-10-03T04:45:13.791Z,6.40
2022-10-03T04:46:58.075Z,6.40
2022-10-03T04:48:41.209Z,6.40
2022-10-03T04:50:35.087Z,6.40
2022-10-03T04:52:23.046Z,6.40
2022-10-03T04:54:15.318Z,6.40
2022-10-03T04:55:55.119Z,6.40
2022-10-03T04:57:38.976Z,6.30
2022-10-03T04:59:46.216Z,6.40
2022-10-03T05:01:29.155Z,6.30
2022-10-03T05:03:14.138Z,6.30
2022-10-03T05:05:26.813Z,6.30
2022-10-03T05:07:14.867Z,6.30
2022-10-03T05:08:59.515Z,6.30
2022-10-03T05:10:54.489Z,6.30
2022-10-03T05:12:43.377Z,6.30
2022-10-03T05:14:33.720Z,6.30
2022-10-03T05:16:21.873Z,6.30
2022-10-03T05:18:08.086Z,6.30
2022-10-03T05:19:54.315Z,6.20
2022-10-03T05:21:37.914Z,6.20
2022-10-03T05:23:31.227Z,6.20
2022-10-03T05:25:25.782Z,6.20
2022-10-03T05:27:16.211Z,6.20
2022-10-03T05:29:01.277Z,6.20
2022-10-03T05:30:53.268Z,6.20
2022-10-03T05:32:42.959Z,6.20
2022-10-03T05:34:35.709Z,6.20
2022-10-03T05:36:24.303Z,6.20
2022-10-03T05:38:27.919Z,6.20
2022-10-03T05:40:17.298Z,6.20
2022-10-03T05:42:22.263Z,6.20
2022-10-03T05:44:07.879Z,6.20
2022-10-03T05:46:02.131Z,6.20
2022-10-03T05:47:59.014Z,6.20
2022-10-03T05:49:56.006Z,6.30
2022-10-03T05:51:57.900Z,6.20
2022-10-03T05:54:23.445Z,6.20
2022-10-03T05:56:11.446Z,6.30
2022-10-03T05:58:32.075Z,6.20
2022-10-03T06:00:20.751Z,6.30
2022-10-03T06:02:34.483Z,6.30
2022-10-03T06:04:58.980Z,6.30
2022-10-03T06:06:51.427Z,6.30
2022-10-03T06:08:56.333Z,6.30
2022-10-03T06:10:50.965Z,6.30
2022-10-03T06:12:35.167Z,6.30
2022-10-03T06:14:35.153Z,6.30
2022-10-03T06:16:38.259Z,6.30
2022-10-03T06:18:44.048Z,6.40
2022-10-03T06:21:19.356Z,6.40
2022-10-03T06:23:47.800Z,6.40
2022-10-03T06:26:21.083Z,6.40
2022-10-03T06:28:38.267Z,6.40
2022-10-03T06:30:33.836Z,6.40
2022-10-03T06:32:57.991Z,6.40
2022-10-03T06:35:12.056Z,6.50
2022-10-03T06:37:06.841Z,6.50
2022-10-03T06:39:24.396Z,6.60
2022-10-03T06:41:55.134Z,6.50
2022-10-03T06:44:04.756Z,6.60
2022-10-03T06:46:38.486Z,6.60
2022-10-03T06:49:06.253Z,6.70
2022-10-03T06:51:14.140Z,6.70
2022-10-03T06:53:19.324Z,6.70
2022-10-03T06:55:43.210Z,6.70
2022-10-03T06:57:40.604Z,6.80
2022-10-03T06:59:57.546Z,6.90
2022-10-03T07:01:59.558Z,6.90
2022-10-03T07:04:34.526Z,6.90
2022-10-03T07:06:43.043Z,7.00
2022-10-03T07:08:59.719Z,7.00
2022-10-03T07:10:57.929Z,7.10
2022-10-03T07:13:15.273Z,7.10
2022-10-03T07:16:02.170Z,7.10
2022-10-03T07:18:08.238Z,7.20
2022-10-03T07:20:08.531Z,7.20
2022-10-03T07:22:25.415Z,7.20
2022-10-03T07:24:36.020Z,7.30
2022-10-03T07:27:00.495Z,7.30
2022-10-03T07:29:22.499Z,7.40
2022-10-03T07:31:09.906Z,7.40
2022-10-03T07:33:36.625Z,7.50
2022-10-03T07:36:03.167Z,7.50
2022-10-03T07:38:49.857Z,7.60
2022-10-03T07:41:04.595Z,7.60
2022-10-03T07:43:24.607Z,7.70
2022-10-03T07:45:36.038Z,7.80
2022-10-03T07:48:00.241Z,7.80
2022-10-03T07:50:06.476Z,7.90
2022-10-03T07:52:00.916Z,7.90
2022-10-03T07:54:21.743Z,8.00
2022-10-03T07:56:20.358Z,8.10
2022-10-03T07:58:26.282Z,8.20
2022-10-03T08:00:22.573Z,8.20
2022-10-03T08:02:26.778Z,8.30
2022-10-03T08:04:40.809Z,8.40
2022-10-03T08:06:29.938Z,8.50
2022-10-03T08:08:38.019Z,8.60
2022-10-03T08:10:42.356Z,8.60
2022-10-03T08:12:55.255Z,8.70
2022-10-03T08:14:46.273Z,8.80
2022-10-03T08:16:53.615Z,8.90
2022-10-03T08:19:15.359Z,9.00
2022-10-03T08:20:55.498Z,9.10
2022-10-03T08:22:48.855Z,9.20
2022-10-03T08:25:11.571Z,9.20
2022-10-03T08:27:20.010Z,9.40
2022-10-03T08:29:53.096Z,9.50
2022-10-03T08:32:19.556Z,9.50
2022-10-03T08:34:33.486Z,9.60
2022-10-03T08:36:54.397Z,9.70
2022-10-03T08:38:56.876Z,9.80
2022-10-03T08:41:22.699Z,9.90
2022-10-03T08:43:40.831Z,10.00
2022-10-03T08:46:00.780Z,10.10
2022-10-03T08:48:36.531Z,10.20
2022-10-03T08:50:53.326Z,10.30
2022-10-03T08:52:49.571Z,10.50
2022-10-03T08:54:48.108Z,10.50
2022-10-03T08:56:38.192Z,10.60
2022-10-03T08:59:10.079Z,10.60
2022-10-03T09:01:36.927Z,10.80
2022-10-03T09:04:03.343Z,10.80
2022-10-03T09:06:58.673Z,11.00
2022-10-03T09:09:04.265Z,11.10
2022-10-03T09:11:07.425Z,11.20
2022-10-03T09:13:43.807Z,11.30
2022-10-03T09:16:13.799Z,11.40
2022-10-03T09:18:41.535Z,11.50
2022-10-03T09:20:54.404Z,11.60
2022-10-03T09:23:12.033Z,11.70
2022-10-03T09:25:19.722Z,11.80
2022-10-03T09:27:43.228Z,11.80
2022-10-03T09:30:08.457Z,11.90
2022-10-03T09:32:25.222Z,12.00
2022-10-03T09:34:53.737Z,12.10
2022-10-03T09:37:14.204Z,12.30
2022-10-03T09:39:48.936Z,12.40
2022-10-03T09:42:09.688Z,12.50
2022-10-03T09:44:28.872Z,12.50
2022-10-03T09:47:09.668Z,12.60
2022-10-03T09:49:47.161Z,12.70
2022-10-03T09:51:45.127Z,12.70
2022-10-03T09:54:19.764Z,12.80
2022-10-03T09:56:44.133Z,12.80
2022-10-03T09:58:56.594Z,12.90
2022-10-03T10:00:57.514Z,12.90
2022-10-03T10:03:29.522Z,12.90
2022-10-03T10:05:47.942Z,13.00
2022-10-03T10:08:12.471Z,13.00
2022-10-03T10:10:14.810Z,13.10
2022-10-03T10:12:24.619Z,13.10
2022-10-03T10:14:29.696Z,13.20
2022-10-03T10:16:38.441Z,13.30
2022-10-03T10:19:06.396Z,13.30
2022-10-03T10:21:37.201Z,13.40
2022-10-03T10:23:48.199Z,13.40
2022-10-03T10:26:05.512Z,13.50
2022-10-03T10:28:16.716Z,13.60
2022-10-03T10:30:22.959Z,13.70
2022-10-03T10:32:53.470Z,13.80
2022-10-03T10:35:19.267Z,13.90
2022-10-03T10:37:54.119Z,14.10
2022-10-03T10:40:26.218Z,14.20
2022-10-03T10:43:07.792Z,14.30
2022-10-03T10:45:36.494Z,14.50
2022-10-03T10:47:50.156Z,14.50
2022-10-03T10:50:18.412Z,14.60
2022-10-03T10:52:45.032Z,14.60
2022-10-03T10:55:04.292Z,14.70
2022-10-03T10:57:17.359Z,14.70
2022-10-03T11:00:08.443Z,14.70
2022-10-03T11:02:34.105Z,14.70
2022-10-03T11:05:23.091Z,14.70
2022-10-03T11:07:45.757Z,14.70
2022-10-03T11:10:06.282Z,14.70
2022-10-03T11:13:06.843Z,14.70
2022-10-03T11:15:43.367Z,14.70
2022-10-03T11:17:57.448Z,14.70
2022-10-03T11:20:23.175Z,14.80
2022-10-03T11:23:04.983Z,14.80
2022-10-03T11:25:31.020Z,14.80
2022-10-03T11:27:46.661Z,14.80
2022-10-03T11:30:06.153Z,14.90
2022-10-03T11:32:31.828Z,14.80
2022-10-03T11:35:11.453Z,14.80
2022-10-03T11:37:32.540Z,14.90
2022-10-03T11:39:19.758Z,14.90
2022-10-03T11:41:13.702Z,14.90
2022-10-03T11:43:01.745Z,14.90
2022-10-03T11:44:44.807Z,15.00
2022-10-03T11:46:45.989Z,14.90
2022-10-03T11:48:41.446Z,15.00
2022-10-03T11:50:35.328Z,15.10
2022-10-03T11:52:28.766Z,15.10
2022-10-03T11:54:31.029Z,15.10
2022-10-03T11:56:36.458Z,15.10
2022-10-03T11:58:34.771Z,15.20
2022-10-03T12:00:22.276Z,15.20
2022-10-03T12:02:16.164Z,15.20
2022-10-03T12:04:04.090Z,15.20
2022-10-03T12:06:13.740Z,15.30
2022-10-03T12:08:20.863Z,15.40
2022-10-03T12:10:14.884Z,15.30
2022-10-03T12:11:58.127Z,15.30
2022-10-03T12:13:44.458Z,15.40
2022-10-03T12:15:36.611Z,15.40
2022-10-03T12:17:17.818Z,15.40
2022-10-03T12:19:02.939Z,15.50
2022-10-03T12:21:11.615Z,15.50
2022-10-03T12:22:53.500Z,15.50
2022-10-03T12:24:30.480Z,15.60
2022-10-03T12:26:11.028Z,15.60
2022-10-03T12:27:57.387Z,15.60
2022-10-03T12:29:36.259Z,15.60
2022-10-03T12:31:23.633Z,15.70
2022-10-03T12:33:28.339Z,15.80
2022-10-03T12:35:19.484Z,15.80
2022-10-03T12:37:12.763Z,15.90
2022-10-03T12:39:19.146Z,15.90
2022-10-03T12:41:11.059Z,15.90
2022-10-03T12:43:01.211Z,16.00
2022-10-03T12:44:50.824Z,16.00
2022-10-03T12:46:37.771Z,16.10
2022-10-03T12:48:42.927Z,16.10
2022-10-03T12:50:38.850Z,16.10
2022-10-03T12:52:25.973Z,16.20
2022-10-03T12:54:12.258Z,16.20
2022-10-03T12:56:06.273Z,16.20
2022-10-03T12:58:01.453Z,16.20
2022-10-03T12:59:42.127Z,16.20
2022-10-03T13:01:28.855Z,16.30
2022-10-03T13:03:26.718Z,16.30
2022-10-03T13:05:30.961Z,16.40
2022-10-03T13:07:22.826Z,16.40
2022-10-03T13:09:17.229Z,16.40
2022-10-03T13:11:01.023Z,16.40
2022-10-03T13:12:49.197Z,16.30
2022-10-03T13:15:06.143Z,16.40
2022-10-03T13:16:55.924Z,16.40
2022-10-03T13:18:54.478Z,16.40
2022-10-03T13:20:38.275Z,16.30
2022-10-03T13:22:32.408Z,16.30
2022-10-03T13:24:16.560Z,16.30
2022-10-03T13:26:18.468Z,16.30
2022-10-03T13:28:02.970Z,16.30
2022-10-03T13:29:44.510Z,16.30
2022-10-03T13:31:25.937Z,16.30
2022-10-03T13:33:07.138Z,16.20
2022-10-03T13:35:20.479Z,16.30
2022-10-03T13:37:05.185Z,16.20
2022-10-03T13:39:09.134Z,16.30
2022-10-03T13:40:57.212Z,16.30
2022-10-03T13:42:45.195Z,16.30
2022-10-03T13:44:27.143Z,16.40
2022-10-03T13:46:08.047Z,16.40
2022-10-03T13:47:51.903Z,16.40
2022-10-03T13:49:35.886Z,16.50
2022-10-03T13:51:28.236Z,16.50
2022-10-03T13:53:10.694Z,16.50
2022-10-03T13:55:11.051Z,16.50
2022-10-03T13:56:56.023Z,16.50
2022-10-03T13:58:50.311Z,16.60
2022-10-03T14:00:36.164Z,16.60
2022-10-03T14:02:52.600Z,16.60
2022-10-03T14:05:03.098Z,16.60
2022-10-03T14:06:44.668Z,16.60
2022-10-03T14:08:51.307Z,16.60
2022-10-03T14:11:09.058Z,16.60
2022-10-03T14:13:16.362Z,16.60
2022-10-03T14:15:21.829Z,16.50
2022-10-03T14:17:08.942Z,16.60
2022-10-03T14:18:57.855Z,16.60
2022-10-03T14:20:40.371Z,16.50
2022-10-03T14:22:31.508Z,16.50
2022-10-03T14:24:21.227Z,16.50
2022-10-03T14:26:04.816Z,16.50
2022-10-03T14:27:58.771Z,16.50
2022-10-03T14:29:47.669Z,16.50
2022-10-03T14:31:34.168Z,16.50
2022-10-03T14:33:25.799Z,16.50
2022-10-03T14:35:25.278Z,16.50
2022-10-03T14:37:17.347Z,16.50
2022-10-03T14:39:12.683Z,16.50
2022-10-03T14:40:51.679Z,16.50
2022-10-03T14:43:07.381Z,16.50
2022-10-03T14:44:48.492Z,16.50
2022-10-03T14:46:30.136Z,16.60
2022-10-03T14:48:13.331Z,16.50
2022-10-03T14:49:59.553Z,16.50
2022-10-03T14:51:40.678Z,16.50
2022-10-03T14:53:21.306Z,16.50
2022-10-03T14:55:04.056Z,16.50
2022-10-03T14:56:47.637Z,16.60
2022-10-03T14:58:33.724Z,16.50
2022-10-03T15:00:34.206Z,16.50
2022-10-03T15:02:30.785Z,16.50
2022-10-03T15:04:25.928Z,16.60
2022-10-03T15:06:18.895Z,16.50
2022-10-03T15:07:54.247Z,16.50
2022-10-03T15:09:41.400Z,16.50
2022-10-03T15:11:21.188Z,16.50
2022-10-03T15:13:03.124Z,16.50
2022-10-03T15:14:53.954Z,16.50
2022-10-03T15:16:32.684Z,16.50
2022-10-03T15:18:17.243Z,16.50
2022-10-03T15:19:57.912Z,16.40
2022-10-03T15:21:36.208Z,16.40
2022-10-03T15:23:22.271Z,16.40
2022-10-03T15:25:06.493Z,16.40
2022-10-03T15:26:44.088Z,16.40
2022-10-03T15:28:27.577Z,16.40
2022-10-03T15:30:06.183Z,16.40
2022-10-03T15:31:44.463Z,16.40
2022-10-03T15:33:30.142Z,16.30
2022-10-03T15:35:08.207Z,16.30
2022-10-03T15:36:49.475Z,16.30
2022-10-03T15:38:30.043Z,16.30
2022-10-03T15:40:12.523Z,16.30
2022-10-03T15:41:55.346Z,16.30
2022-10-03T15:43:36.506Z,16.20
2022-10-03T15:45:26.103Z,16.20
2022-10-03T15:47:09.512Z,16.20
2022-10-03T15:48:47.637Z,16.10
2022-10-03T15:50:26.535Z,16.20
2022-10-03T15:52:12.464Z,16.10
2022-10-03T15:53:58.572Z,16.10
2022-10-03T15:55:42.287Z,16.10
2022-10-03T15:57:27.147Z,16.00
2022-10-03T15:59:11.894Z,16.10
2022-10-03T16:00:56.323Z,16.00
2022-10-03T16:02:42.184Z,16.00
2022-10-03T16:04:23.155Z,16.00
2022-10-03T16:06:10.507Z,16.00
2022-10-03T16:08:01.987Z,16.00
2022-10-03T16:09:54.233Z,16.00
2022-10-03T16:11:39.221Z,15.90
2022-10-03T16:13:35.802Z,15.90
2022-10-03T16:15:22.551Z,15.90
2022-10-03T16:17:06.216Z,15.90
2022-10-03T16:19:03.744Z,15.90
2022-10-03T16:20:42.439Z,15.90
2022-10-03T16:22:27.876Z,15.90
2022-10-03T16:24:05.600Z,15.80
2022-10-03T16:25:49.467Z,15.80
2022-10-03T16:27:27.293Z,15.80
2022-10-03T16:29:15.673Z,15.80
2022-10-03T16:30:58.950Z,15.70
2022-10-03T16:32:38.150Z,15.70
2022-10-03T16:34:17.037Z,15.60
2022-10-03T16:35:54.640Z,15.60
2022-10-03T16:37:31.007Z,15.60
2022-10-03T16:39:07.563Z,15.50
2022-10-03T16:40:42.576Z,15.50
2022-10-03T16:42:24.915Z,15.50
2022-10-03T16:44:01.502Z,15.40
2022-10-03T16:45:42.390Z,15.40
2022-10-03T16:47:19.214Z,15.30
2022-10-03T16:49:16.047Z,15.30
2022-10-03T16:50:53.488Z,15.30
2022-10-03T16:52:34.675Z,15.20
2022-10-03T16:54:13.974Z,15.20
2022-10-03T16:55:59.212Z,15.10
2022-10-03T16:57:45.503Z,15.10
2022-10-03T16:59:22.552Z,15.10
2022-10-03T17:02:57.100Z,15.00
2022-10-03T17:04:36.395Z,14.90
2022-10-03T17:06:22.470Z,14.80
2022-10-03T17:08:23.575Z,14.90
2022-10-03T17:09:58.610Z,14.70
2022-10-03T17:11:39.632Z,14.70
2022-10-03T17:13:17.557Z,14.70
2022-10-03T17:14:55.723Z,14.50
2022-10-03T17:16:47.598Z,14.50
2022-10-03T17:18:27.710Z,14.50
2022-10-03T17:20:08.578Z,14.40
2022-10-03T17:21:53.982Z,14.40
2022-10-03T17:23:36.649Z,14.30
2022-10-03T17:25:39.011Z,14.30
2022-10-03T17:27:25.083Z,14.20
2022-10-03T17:29:11.670Z,14.10
2022-10-03T17:30:52.399Z,14.10
2022-10-03T17:32:34.997Z,14.00
2022-10-03T17:34:17.900Z,14.00
2022-10-03T17:36:04.775Z,13.90
2022-10-03T17:38:44.544Z,13.90
2022-10-03T17:40:22.925Z,13.80
2022-10-03T17:42:08.996Z,13.70
2022-10-03T17:43:49.349Z,13.70
2022-10-03T17:45:36.852Z,13.60
2022-10-03T17:47:19.315Z,13.50
2022-10-03T17:49:06.331Z,13.50
2022-10-03T17:50:53.632Z,13.40
2022-10-03T17:52:30.939Z,13.40
2022-10-03T17:54:12.776Z,13.30
2022-10-03T17:55:56.775Z,13.30
2022-10-03T17:57:37.441Z,13.20
2022-10-03T17:59:22.974Z,13.10
2022-10-03T18:01:13.323Z,13.10
2022-10-03T18:02:56.893Z,13.10
2022-10-03T18:04:37.083Z,13.00
2022-10-03T18:06:40.683Z,13.00
2022-10-03T18:08:19.732Z,12.90
2022-10-03T18:09:56.123Z,12.90
2022-10-03T18:11:34.726Z,12.80
2022-10-03T18:13:19.283Z,12.80
2022-10-03T18:15:46.951Z,12.80
2022-10-03T18:17:31.358Z,12.60
2022-10-03T18:19:23.389Z,12.60
2022-10-03T18:21:05.517Z,12.60
2022-10-03T18:22:48.940Z,12.50
2022-10-03T18:24:52.798Z,12.50
2022-10-03T18:26:31.045Z,12.40
2022-10-03T18:28:15.800Z,12.30
2022-10-03T18:30:05.547Z,12.30
2022-10-03T18:31:45.250Z,12.20
2022-10-03T18:33:27.571Z,12.20
2022-10-03T18:35:12.873Z,12.20
2022-10-03T18:36:50.172Z,12.10
2022-10-03T18:38:29.596Z,12.10
2022-10-03T18:40:10.537Z,12.10
2022-10-03T18:41:46.519Z,12.00
2022-10-03T18:43:37.748Z,12.00
2022-10-03T18:45:22.999Z,11.90
2022-10-03T18:47:17.987Z,11.90
2022-10-03T18:49:32.831Z,11.90
2022-10-03T18:51:06.803Z,11.80
2022-10-03T18:52:52.299Z,11.80
2022-10-03T18:54:39.704Z,11.70
2022-10-03T18:56:20.803Z,11.80
2022-10-03T18:58:07.268Z,11.60
2022-10-03T18:59:53.790Z,11.60
2022-10-03T19:01:42.467Z,11.50
2022-10-03T19:03:20.449Z,11.50
2022-10-03T19:04:59.261Z,11.40
2022-10-03T19:06:38.319Z,11.40
2022-10-03T19:08:21.681Z,11.40
2022-10-03T19:10:40.779Z,11.30
2022-10-03T19:12:23.459Z,11.30
2022-10-03T19:14:06.184Z,11.20
2022-10-03T19:15:58.175Z,11.20
2022-10-03T19:17:46.494Z,11.10
2022-10-03T19:19:33.262Z,11.10
2022-10-03T19:21:18.770Z,11.10
2022-10-03T19:23:02.848Z,11.00
2022-10-03T19:24:57.776Z,11.00
2022-10-03T19:26:38.310Z,10.90
2022-10-03T19:28:23.854Z,10.90
2022-10-03T19:30:01.521Z,10.90
2022-10-03T19:31:42.111Z,10.80
2022-10-03T19:33:25.411Z,10.80
2022-10-03T19:35:03.881Z,10.70
2022-10-03T19:36:42.057Z,10.70
2022-10-03T19:38:21.363Z,10.60
2022-10-03T19:39:56.584Z,10.60
2022-10-03T19:41:35.593Z,10.60
2022-10-03T19:43:40.298Z,10.50
2022-10-03T19:45:16.271Z,10.50
2022-10-03T19:47:03.392Z,10.40
2022-10-03T19:48:48.434Z,10.40
2022-10-03T19:50:29.675Z,10.40
2022-10-03T19:52:19.888Z,10.30
2022-10-03T19:53:56.503Z,10.30
2022-10-03T19:55:37.130Z,10.20
2022-10-03T19:57:18.007Z,10.20
2022-10-03T19:59:04.491Z,10.20
2022-10-03T20:00:40.830Z,10.10
2022-10-03T20:02:13.624Z,10.20
2022-10-03T20:03:55.291Z,10.10
2022-10-03T20:06:01.054Z,10.10
2022-10-03T20:07:45.662Z,10.00
2022-10-03T20:09:26.740Z,10.00
2022-10-03T20:11:21.956Z,10.00
2022-10-03T20:12:55.752Z,10.00
2022-10-03T20:14:37.387Z,9.90
2022-10-03T20:16:16.714Z,9.90
2022-10-03T20:17:53.375Z,9.90
2022-10-03T20:19:35.164Z,9.80
2022-10-03T20:21:13.038Z,9.80
2022-10-03T20:22:47.173Z,9.80
2022-10-03T20:24:31.763Z,9.70
2022-10-03T20:26:17.594Z,9.70
2022-10-03T20:27:57.184Z,9.70
2022-10-03T20:29:38.712Z,9.70
2022-10-03T20:31:22.758Z,9.60
2022-10-03T20:32:59.731Z,9.50
2022-10-03T20:34:37.631Z,9.50
2022-10-03T20:36:22.345Z,9.50
2022-10-03T20:38:03.557Z,9.50
2022-10-03T20:39:41.550Z,9.40
2022-10-03T20:41:22.732Z,9.40
2022-10-03T20:43:19.138Z,9.40
2022-10-03T20:45:02.689Z,9.30
2022-10-03T20:46:41.750Z,9.30
2022-10-03T20:48:25.889Z,9.30
2022-10-03T20:50:08.707Z,9.30
2022-10-03T20:51:45.894Z,9.30
2022-10-03T20:53:24.910Z,9.20
2022-10-03T20:55:03.057Z,9.20
2022-10-03T20:56:54.764Z,9.10
2022-10-03T20:58:34.302Z,9.10
2022-10-03T21:00:23.071Z,9.10
2022-10-03T21:02:08.366Z,9.00
2022-10-03T21:04:00.064Z,9.00
2022-10-03T21:05:39.530Z,9.00
2022-10-03T21:07:31.870Z,8.90
2022-10-03T21:09:08.526Z,8.90
2022-10-03T21:10:49.837Z,8.90
2022-10-03T21:12:29.029Z,8.80
2022-10-03T21:14:19.257Z,8.80
2022-10-03T21:15:57.772Z,8.80
2022-10-03T21:17:32.635Z,8.80
2022-10-03T21:19:17.192Z,8.70
2022-10-03T21:21:06.158Z,8.70
2022-10-03T21:22:41.122Z,8.70
2022-10-03T21:24:24.402Z,8.70
2022-10-03T21:26:01.385Z,8.60
2022-10-03T21:27:36.676Z,8.60
2022-10-03T21:29:27.686Z,8.60
2022-10-03T21:31:32.012Z,8.50
2022-10-03T21:33:12.559Z,8.50
2022-10-03T21:34:56.815Z,8.40
2022-10-03T21:36:48.051Z,8.40
2022-10-03T21:38:28.330Z,8.40
2022-10-03T21:40:22.100Z,8.40
2022-10-03T21:42:16.272Z,8.40
2022-10-03T21:43:55.319Z,8.30
2022-10-03T21:45:41.561Z,8.30
2022-10-03T21:47:34.421Z,8.30
2022-10-03T21:49:52.231Z,8.30
2022-10-03T21:51:29.732Z,8.20
2022-10-03T21:53:19.616Z,8.20
2022-10-03T21:55:14.596Z,8.20
2022-10-03T21:57:06.955Z,8.20
2022-10-03T21:59:26.848Z,8.10
2022-10-03T22:01:14.313Z,8.10
2022-10-03T22:03:03.454Z,8.10
2022-10-03T22:04:44.707Z,8.10
2022-10-03T22:06:25.165Z,8.00
2022-10-03T22:07:58.756Z,8.00
2022-10-03T22:09:32.558Z,8.10
2022-10-03T22:11:19.790Z,7.90
2022-10-03T22:12:58.550Z,7.90
2022-10-03T22:14:42.985Z,7.90
2022-10-03T22:16:28.878Z,7.90
2022-10-03T22:18:10.659Z,7.80
2022-10-03T22:19:50.843Z,7.80
2022-10-03T22:21:30.618Z,7.80
2022-10-03T22:23:26.692Z,7.80
2022-10-03T22:25:27.107Z,7.70
2022-10-03T22:27:10.688Z,7.80
2022-10-03T22:28:58.732Z,7.70
2022-10-03T22:30:40.166Z,7.70
2022-10-03T22:32:22.946Z,7.60
2022-10-03T22:34:14.343Z,7.60
2022-10-03T22:35:52.571Z,7.60
2022-10-03T22:37:26.913Z,7.60
2022-10-03T22:39:00.172Z,7.60
2022-10-03T22:40:37.420Z,7.50
2022-10-03T22:42:16.074Z,7.50
2022-10-03T22:43:51.492Z,7.50
2022-10-03T22:45:29.115Z,7.50
2022-10-03T22:47:10.834Z,7.50
2022-10-03T22:48:50.858Z,7.40
2022-10-03T22:50:31.449Z,7.40
2022-10-03T22:52:09.342Z,7.40
2022-10-03T22:53:51.073Z,7.40
2022-10-03T22:55:28.499Z,7.30
2022-10-03T22:57:07.811Z,7.30
2022-10-03T22:58:41.357Z,7.30
2022-10-03T23:00:21.159Z,7.30
2022-10-03T23:01:59.402Z,7.30
2022-10-03T23:03:36.271Z,7.30
2022-10-03T23:05:17.265Z,7.30
2022-10-03T23:07:43.055Z,7.30
2022-10-03T23:09:28.747Z,7.20
2022-10-03T23:11:08.790Z,7.20
2022-10-03T23:12:51.565Z,7.20
2022-10-03T23:14:30.808Z,7.20
2022-10-03T23:16:24.883Z,7.20
2022-10-03T23:18:38.038Z,7.20
2022-10-03T23:20:20.980Z,7.10
2022-10-03T23:22:00.314Z,7.20
2022-10-03T23:23:50.625Z,7.10
2022-10-03T23:25:30.299Z,7.10
2022-10-03T23:27:47.510Z,7.10
2022-10-03T23:29:21.247Z,7.10
2022-10-03T23:30:55.741Z,7.00
2022-10-03T23:32:54.099Z,7.00
2022-10-03T23:34:49.107Z,7.00
2022-10-03T23:36:25.450Z,7.00
2022-10-03T23:38:00.814Z,7.00
2022-10-03T23:39:35.851Z,7.00
2022-10-03T23:41:14.713Z,6.90
2022-10-03T23:43:03.505Z,6.90
2022-10-03T23:44:49.269Z,6.90
2022-10-03T23:46:28.475Z,6.90
2022-10-03T23:48:07.264Z,6.80
2022-10-03T23:49:47.067Z,6.80
2022-10-03T23:51:25.458Z,6.80
2022-10-03T23:53:01.522Z,6.80
2022-10-03T23:54:35.088Z,6.80
2022-10-03T23:56:28.423Z,6.70
2022-10-03T23:58:16.956Z,6.70
2022-10-03T23:59:51.868Z,6.70
